Time;durP1;ratioP1;P1;durP2;ratioP2;P2;SDS_P1;SDS_P2;PMS_P1;PMS_P2;Temp;Humidity;BMP_temperature;BMP_pressure;BME280_temperature;BME280_humidity;BME280_pressure;Samples;Min_cycle;Max_cycle;Signal;HPM_P1;HPM_P2
2022/08/06 05:00:45;;;;;;;3.97;2.00;;;22.60;97.20;;;;;;1733915;28;20187;-77
2022/08/06 05:01:37;;;;;;;2.30;1.80;;;22.60;97.20;;;;;;1733695;28;20238;-75
2022/08/06 05:02:29;;;;;;;2.20;2.00;;;22.60;97.20;;;;;;1733707;28;20580;-74
2022/08/06 05:03:19;;;;;;;2.33;1.85;;;22.60;97.20;;;;;;1734037;28;20196;-74
2022/08/06 05:04:11;;;;;;;2.50;1.87;;;22.60;97.20;;;;;;1734840;28;20195;-75
2022/08/06 05:05:03;;;;;;;3.10;1.77;;;22.60;97.20;;;;;;1735080;28;20208;-74
2022/08/06 05:06:01;;;;;;;2.20;1.90;;;22.60;97.20;;;;;;1735089;28;20443;-77
2022/08/06 05:06:57;;;;;;;2.10;1.70;;;22.50;97.20;;;;;;1734904;28;20562;-77
2022/08/06 05:07:51;;;;;;;2.58;1.80;;;22.50;97.20;;;;;;1735017;28;20208;-76
2022/08/06 05:08:43;;;;;;;1.70;1.60;;;22.50;97.20;;;;;;1735240;28;20682;-76
2022/08/06 05:09:35;;;;;;;1.70;1.60;;;22.50;97.20;;;;;;1735013;28;20442;-76
2022/08/06 05:10:32;;;;;;;2.20;2.00;;;22.50;97.20;;;;;;1735208;28;20454;-76
2022/08/06 05:11:28;;;;;;;2.75;1.95;;;22.50;97.20;;;;;;1728498;28;20200;-77
2022/08/06 05:12:23;;;;;;;4.20;1.85;;;22.50;97.20;;;;;;1735061;28;20215;-77
2022/08/06 05:13:16;;;;;;;2.50;1.65;;;22.50;97.20;;;;;;1735203;28;20246;-76
2022/08/06 05:14:18;;;;;;;3.78;2.10;;;22.50;97.20;;;;;;1734979;28;20566;-77
2022/08/06 05:15:16;;;;;;;4.25;2.08;;;22.50;97.20;;;;;;1735039;28;20275;-77
2022/08/06 05:16:11;;;;;;;7.80;2.17;;;22.50;97.20;;;;;;1735040;28;20680;-76
2022/08/06 05:17:03;;;;;;;2.97;1.80;;;22.60;97.20;;;;;;1734704;28;20204;-77
2022/08/06 05:17:57;;;;;;;2.50;1.77;;;22.60;97.20;;;;;;1734690;28;20207;-77
2022/08/06 05:18:53;;;;;;;3.95;1.95;;;22.50;97.20;;;;;;1734614;28;20210;-76
2022/08/06 05:19:50;;;;;;;2.38;2.17;;;22.50;97.20;;;;;;1735003;28;20199;-77
2022/08/06 05:20:47;;;;;;;3.10;1.80;;;22.50;97.20;;;;;;1735075;28;20291;-76
2022/08/06 05:21:39;;;;;;;2.15;1.88;;;22.50;97.20;;;;;;1734927;28;20200;-76
2022/08/06 05:22:33;;;;;;;2.45;2.25;;;22.50;97.20;;;;;;1735202;28;20231;-76
2022/08/06 05:23:29;;;;;;;2.92;2.10;;;22.50;97.20;;;;;;1728280;28;20205;-76
2022/08/06 05:24:21;;;;;;;3.03;2.15;;;22.50;97.20;;;;;;1734802;28;20224;-76
2022/08/06 05:25:12;;;;;;;2.92;2.10;;;22.50;97.20;;;;;;1734965;28;20196;-76
2022/08/06 05:26:04;;;;;;;2.08;1.80;;;22.50;97.20;;;;;;1735013;28;20275;-76
2022/08/06 05:26:56;;;;;;;4.85;2.40;;;22.50;97.20;;;;;;1734680;28;20200;-76
2022/08/06 05:27:48;;;;;;;2.55;1.80;;;22.40;97.20;;;;;;1734890;28;20588;-76
2022/08/06 05:28:39;;;;;;;4.85;2.10;;;22.50;97.20;;;;;;1734953;28;20200;-76
2022/08/06 05:29:31;;;;;;;1.90;1.80;;;22.50;97.20;;;;;;1735111;28;20195;-76
2022/08/06 05:30:22;;;;;;;2.35;1.80;;;22.50;97.20;;;;;;1734653;28;20199;-76
2022/08/06 05:31:15;;;;;;;2.37;1.90;;;22.50;97.20;;;;;;1734873;28;20192;-76
2022/08/06 05:32:06;;;;;;;4.10;2.25;;;22.50;97.20;;;;;;1734847;28;20466;-76
2022/08/06 05:32:58;;;;;;;2.25;2.05;;;22.40;97.20;;;;;;1734884;28;20195;-76
2022/08/06 05:33:49;;;;;;;2.25;2.05;;;22.40;97.20;;;;;;1734896;28;20691;-76
2022/08/06 05:34:41;;;;;;;2.60;1.90;;;22.40;97.20;;;;;;1735124;28;20204;-76
2022/08/06 05:35:32;;;;;;;1.92;1.73;;;22.40;97.20;;;;;;1728254;28;20571;-76
2022/08/06 05:36:23;;;;;;;2.97;2.10;;;22.40;97.20;;;;;;1733858;28;20637;-76
2022/08/06 05:37:14;;;;;;;3.03;1.83;;;22.40;97.20;;;;;;1734561;28;20196;-76
2022/08/06 05:38:06;;;;;;;2.37;1.57;;;22.40;97.20;;;;;;1734705;28;20279;-76
2022/08/06 05:38:57;;;;;;;2.33;2.08;;;22.30;97.20;;;;;;1734832;28;20207;-76
2022/08/06 05:39:48;;;;;;;2.97;2.20;;;22.30;97.20;;;;;;1734763;28;20286;-76
2022/08/06 05:40:40;;;;;;;2.00;1.80;;;22.30;97.20;;;;;;1735020;28;20434;-76
2022/08/06 05:41:34;;;;;;;2.25;2.05;;;22.30;97.20;;;;;;1734772;28;20262;-76
2022/08/06 05:42:25;;;;;;;2.00;1.80;;;22.40;97.20;;;;;;1734846;28;20200;-76
2022/08/06 05:43:17;;;;;;;2.17;1.97;;;22.40;97.20;;;;;;1734806;28;20465;-76
2022/08/06 05:44:07;;;;;;;3.53;1.75;;;22.40;97.20;;;;;;1734769;28;20457;-76
2022/08/06 05:44:59;;;;;;;4.23;2.03;;;22.40;97.20;;;;;;1734906;28;20203;-77
2022/08/06 05:45:54;;;;;;;3.85;1.90;;;22.40;97.20;;;;;;1734780;28;20203;-76
2022/08/06 05:46:53;;;;;;;3.05;1.70;;;22.40;97.20;;;;;;1734762;28;20192;-76
2022/08/06 05:47:46;;;;;;;2.20;2.00;;;22.40;97.20;;;;;;1728232;28;20201;-76
2022/08/06 05:48:42;;;;;;;2.70;2.10;;;22.40;97.20;;;;;;1728249;28;20200;-77
2022/08/06 05:49:39;;;;;;;2.03;1.83;;;22.40;97.20;;;;;;1734135;28;20200;-76
2022/08/06 05:50:36;;;;;;;2.40;2.13;;;22.40;97.20;;;;;;1734781;28;20203;-76
2022/08/06 05:51:35;;;;;;;2.13;1.77;;;22.40;97.20;;;;;;1734710;28;20192;-75
2022/08/06 05:52:32;;;;;;;4.70;2.00;;;22.40;97.20;;;;;;1734816;28;20195;-75
2022/08/06 05:53:30;;;;;;;3.78;2.33;;;22.40;97.20;;;;;;1734809;28;20199;-75
2022/08/06 05:54:28;;;;;;;2.33;2.13;;;22.40;97.20;;;;;;1734909;28;20204;-75
2022/08/06 05:55:24;;;;;;;3.38;2.40;;;22.50;97.20;;;;;;1734950;28;20196;-75
2022/08/06 05:56:21;;;;;;;3.80;2.33;;;22.50;97.20;;;;;;1734700;28;20246;-75
2022/08/06 05:57:24;;;;;;;2.58;1.75;;;22.50;97.20;;;;;;1734515;28;20211;-76
2022/08/06 05:58:23;;;;;;;2.47;1.90;;;22.50;97.20;;;;;;1734734;28;20203;-75
2022/08/06 05:59:20;;;;;;;2.00;1.80;;;22.50;97.20;;;;;;1734756;28;20203;-76
2022/08/06 06:00:16;;;;;;;2.00;1.80;;;22.50;97.20;;;;;;1734611;28;20204;-75
2022/08/06 06:01:08;;;;;;;3.17;2.63;;;22.50;97.20;;;;;;1734604;28;20222;-75
2022/08/06 06:02:03;;;;;;;3.55;1.70;;;22.50;97.20;;;;;;1734651;28;20220;-75
2022/08/06 06:02:55;;;;;;;2.85;1.95;;;22.50;97.20;;;;;;1734936;28;20226;-76
2022/08/06 06:03:48;;;;;;;2.35;2.10;;;22.50;97.20;;;;;;1734796;28;20202;-75
2022/08/06 06:04:39;;;;;;;2.38;2.15;;;22.50;97.20;;;;;;1734713;28;20565;-75
2022/08/06 06:05:33;;;;;;;2.92;2.05;;;22.50;97.20;;;;;;1734699;28;20651;-75
2022/08/06 06:06:24;;;;;;;3.47;1.80;;;22.50;97.20;;;;;;1734696;28;20196;-75
2022/08/06 06:07:16;;;;;;;3.58;1.98;;;22.50;97.20;;;;;;1734503;28;20660;-75
2022/08/06 06:08:08;;;;;;;2.08;1.85;;;22.50;97.20;;;;;;1734429;28;20230;-75
2022/08/06 06:09:00;;;;;;;3.55;1.90;;;22.50;97.20;;;;;;1734942;28;20254;-76
2022/08/06 06:09:53;;;;;;;2.85;2.20;;;22.50;97.20;;;;;;1734741;28;20202;-76
2022/08/06 06:10:46;;;;;;;1.92;1.70;;;22.50;97.20;;;;;;1734742;28;20199;-75
2022/08/06 06:11:37;;;;;;;2.95;1.98;;;22.60;97.20;;;;;;1734618;28;20202;-76
2022/08/06 06:12:30;;;;;;;2.57;2.13;;;22.50;97.20;;;;;;1734554;28;20274;-76
2022/08/06 06:13:23;;;;;;;2.15;1.80;;;22.60;97.20;;;;;;1734604;28;20997;-75
2022/08/06 06:14:37;;;;;;;2.58;1.58;;;22.60;97.20;;;;;;1734652;28;20200;-76
2022/08/06 06:15:28;;;;;;;5.38;2.03;;;22.60;97.20;;;;;;1734598;28;20215;-75
2022/08/06 06:16:28;;;;;;;5.03;2.00;;;22.60;97.20;;;;;;1734655;28;20216;-75
2022/08/06 06:17:33;;;;;;;2.65;1.70;;;22.60;97.20;;;;;;1734437;28;20322;-77
2022/08/06 06:18:38;;;;;;;2.25;1.80;;;22.50;97.20;;;;;;1734537;28;20204;-76
2022/08/06 06:19:35;;;;;;;2.50;2.20;;;22.50;97.20;;;;;;1734698;28;20199;-75
2022/08/06 06:20:36;;;;;;;3.03;2.20;;;22.50;97.20;;;;;;1734672;28;20214;-75
2022/08/06 06:21:40;;;;;;;2.60;2.40;;;22.50;97.20;;;;;;1734479;28;20219;-76
2022/08/06 06:22:36;;;;;;;2.83;2.00;;;22.50;97.20;;;;;;1734625;28;20196;-75
2022/08/06 06:23:32;;;;;;;4.25;2.20;;;22.40;97.20;;;;;;1734626;28;20227;-75
2022/08/06 06:24:29;;;;;;;2.03;1.90;;;22.40;97.20;;;;;;1734758;28;20226;-76
2022/08/06 06:25:27;;;;;;;2.35;1.80;;;22.40;97.20;;;;;;1734623;28;20196;-75
2022/08/06 06:26:25;;;;;;;2.30;2.00;;;22.40;97.20;;;;;;1734653;28;20652;-75
2022/08/06 06:27:23;;;;;;;2.20;1.90;;;22.40;97.20;;;;;;1734443;28;20207;-75
2022/08/06 06:28:24;;;;;;;2.10;2.00;;;22.40;97.20;;;;;;1734646;28;20199;-75
2022/08/06 06:29:30;;;;;;;2.47;2.03;;;22.40;97.20;;;;;;1734643;28;20231;-75
2022/08/06 06:30:26;;;;;;;2.63;2.20;;;22.40;97.20;;;;;;1729179;28;20402;-75
2022/08/06 06:31:26;;;;;;;2.50;2.00;;;22.50;97.20;;;;;;1734530;28;20683;-75
2022/08/06 06:32:25;;;;;;;3.25;2.05;;;22.50;97.20;;;;;;1734512;28;20210;-75
2022/08/06 06:33:24;;;;;;;3.55;2.47;;;22.50;97.20;;;;;;1734596;28;20511;-75
2022/08/06 06:34:20;;;;;;;3.30;2.00;;;22.50;97.20;;;;;;1734789;28;20215;-75
2022/08/06 06:35:26;;;;;;;5.40;1.92;;;22.50;97.20;;;;;;1727977;28;20212;-75
2022/08/06 06:36:25;;;;;;;3.47;2.60;;;22.50;97.20;;;;;;1728097;28;20606;-75
2022/08/06 06:37:24;;;;;;;3.53;2.35;;;22.50;97.20;;;;;;1733089;28;20196;-75
2022/08/06 06:38:26;;;;;;;4.22;2.08;;;22.50;97.20;;;;;;1734635;28;20204;-75
2022/08/06 06:39:25;;;;;;;2.20;2.00;;;22.50;97.20;;;;;;1727923;28;20232;-75
2022/08/06 06:40:29;;;;;;;3.38;2.13;;;22.50;97.20;;;;;;1727885;28;20209;-75
2022/08/06 06:41:27;;;;;;;2.65;2.20;;;22.50;97.20;;;;;;1728121;28;20209;-75
2022/08/06 06:42:24;;;;;;;3.75;2.20;;;22.50;97.20;;;;;;1734576;28;20750;-75
2022/08/06 06:43:20;;;;;;;2.53;2.17;;;22.50;97.20;;;;;;1727882;28;20205;-75
2022/08/06 06:44:18;;;;;;;2.15;1.88;;;22.60;97.20;;;;;;1734448;28;20283;-75
2022/08/06 06:45:16;;;;;;;2.78;2.10;;;22.60;97.20;;;;;;1734456;28;20204;-75
2022/08/06 06:46:16;;;;;;;2.67;2.00;;;22.60;97.20;;;;;;1734482;28;20200;-75
2022/08/06 06:47:15;;;;;;;3.20;2.25;;;22.60;97.20;;;;;;1734188;28;20231;-75
2022/08/06 06:48:14;;;;;;;2.35;1.83;;;22.70;97.20;;;;;;1734342;28;20207;-75
2022/08/06 06:49:15;;;;;;;3.67;1.83;;;22.70;97.20;;;;;;1734374;28;20200;-75
2022/08/06 06:50:11;;;;;;;4.32;2.25;;;22.80;97.20;;;;;;1734511;28;20216;-75
2022/08/06 06:51:07;;;;;;;2.95;2.15;;;22.80;97.20;;;;;;1734296;28;20805;-75
2022/08/06 06:52:05;;;;;;;3.25;2.45;;;22.80;97.20;;;;;;1734472;28;20220;-75
2022/08/06 06:52:57;;;;;;;3.30;2.10;;;22.80;97.20;;;;;;1734591;28;20203;-75
2022/08/06 06:53:50;;;;;;;3.25;2.00;;;22.90;97.20;;;;;;1734245;28;20208;-75
2022/08/06 06:55:08;;;;;;;2.88;2.00;;;22.90;97.20;;;;;;1734300;28;20601;-76
2022/08/06 06:56:00;;;;;;;2.50;1.83;;;22.90;97.20;;;;;;1734419;28;20195;-75
2022/08/06 06:56:55;;;;;;;2.15;1.92;;;22.90;97.20;;;;;;1734107;28;20199;-75
2022/08/06 06:57:51;;;;;;;2.05;1.85;;;22.90;97.20;;;;;;1734234;28;20200;-75
2022/08/06 06:58:47;;;;;;;4.45;2.10;;;23.00;97.20;;;;;;1734321;28;20196;-75
2022/08/06 06:59:43;;;;;;;2.72;1.70;;;23.00;97.20;;;;;;1734454;28;20199;-75
2022/08/06 07:00:36;;;;;;;1.95;1.55;;;23.00;97.20;;;;;;1734455;28;20221;-75
2022/08/06 07:01:30;;;;;;;2.10;1.90;;;23.10;97.20;;;;;;1734440;28;20207;-76
2022/08/06 07:02:25;;;;;;;2.33;2.10;;;23.10;97.20;;;;;;1734467;28;20192;-76
2022/08/06 07:03:18;;;;;;;2.50;1.77;;;23.10;97.20;;;;;;1734417;28;20664;-75
2022/08/06 07:04:12;;;;;;;2.35;2.08;;;23.20;97.20;;;;;;1734399;28;20632;-75
2022/08/06 07:05:05;;;;;;;3.47;1.70;;;23.20;97.20;;;;;;1734241;28;20199;-75
2022/08/06 07:05:59;;;;;;;7.30;2.10;;;23.20;97.20;;;;;;1734199;28;20279;-75
2022/08/06 07:06:54;;;;;;;3.33;2.30;;;23.20;97.20;;;;;;1733979;28;20443;-75
2022/08/06 07:07:47;;;;;;;3.15;2.25;;;23.30;97.20;;;;;;1734377;28;20822;-75
2022/08/06 07:08:44;;;;;;;2.92;2.28;;;23.30;97.20;;;;;;1734226;28;20279;-76
2022/08/06 07:09:37;;;;;;;2.38;2.10;;;23.30;97.20;;;;;;1734518;28;20195;-75
2022/08/06 07:10:30;;;;;;;2.10;1.90;;;23.30;97.20;;;;;;1727760;28;20228;-75
2022/08/06 07:11:24;;;;;;;2.17;1.95;;;23.30;97.20;;;;;;1733752;28;20802;-75
2022/08/06 07:12:19;;;;;;;2.13;1.90;;;23.30;97.20;;;;;;1734261;28;20207;-75
2022/08/06 07:13:12;;;;;;;2.25;1.98;;;23.40;97.20;;;;;;1734406;28;20195;-75
2022/08/06 07:14:04;;;;;;;2.55;2.00;;;23.40;97.20;;;;;;1734231;28;20219;-76
2022/08/06 07:14:58;;;;;;;3.10;1.80;;;23.40;97.20;;;;;;1734342;28;20228;-76
2022/08/06 07:15:50;;;;;;;2.90;2.17;;;23.40;97.20;;;;;;1734155;28;20230;-76
2022/08/06 07:16:44;;;;;;;3.85;2.38;;;23.50;97.20;;;;;;1734264;28;20510;-75
2022/08/06 07:17:38;;;;;;;3.35;1.95;;;23.50;97.20;;;;;;1727675;28;20204;-76
2022/08/06 07:18:30;;;;;;;3.20;2.10;;;23.50;97.20;;;;;;1733839;28;20227;-75
2022/08/06 07:19:24;;;;;;;2.47;2.20;;;23.50;97.20;;;;;;1734383;28;20218;-75
2022/08/06 07:20:24;;;;;;;2.83;2.17;;;23.60;97.20;;;;;;1734415;28;20200;-75
2022/08/06 07:21:17;;;;;;;2.90;2.30;;;23.60;97.20;;;;;;1734603;28;20196;-75
2022/08/06 07:22:10;;;;;;;4.07;2.63;;;23.60;97.20;;;;;;1734208;28;20218;-76
2022/08/06 07:23:03;;;;;;;3.67;2.25;;;23.60;97.20;;;;;;1734194;28;20215;-76
2022/08/06 07:23:55;;;;;;;4.35;2.33;;;23.70;97.20;;;;;;1733984;28;20200;-76
2022/08/06 07:24:48;;;;;;;2.77;2.43;;;23.70;97.20;;;;;;1734177;28;20223;-75
2022/08/06 07:25:43;;;;;;;4.53;2.50;;;23.70;97.20;;;;;;1734509;28;20431;-75
2022/08/06 07:26:35;;;;;;;5.23;2.23;;;23.70;97.20;;;;;;1733227;28;20192;-76
2022/08/06 07:27:30;;;;;;;2.70;2.10;;;23.70;97.20;;;;;;1734214;28;20447;-77
2022/08/06 07:28:25;;;;;;;3.63;2.37;;;23.70;97.20;;;;;;1734431;28;20458;-78
2022/08/06 07:29:18;;;;;;;3.13;2.60;;;23.70;97.20;;;;;;1734188;28;20438;-75
2022/08/06 07:30:11;;;;;;;3.30;2.17;;;23.70;97.20;;;;;;1734139;28;20477;-74
2022/08/06 07:31:06;;;;;;;3.45;2.42;;;23.70;97.20;;;;;;1734215;28;20470;-75
2022/08/06 07:31:58;;;;;;;2.88;2.30;;;23.70;97.20;;;;;;1734178;28;20223;-74
2022/08/06 07:32:51;;;;;;;3.75;2.25;;;23.70;97.20;;;;;;1734131;28;20257;-75
2022/08/06 07:33:44;;;;;;;4.40;2.37;;;23.70;97.20;;;;;;1734345;28;20200;-75
2022/08/06 07:34:37;;;;;;;3.00;2.70;;;23.70;97.20;;;;;;1734049;28;20438;-75
2022/08/06 07:35:29;;;;;;;2.50;1.85;;;23.70;97.20;;;;;;1734100;28;20196;-74
2022/08/06 07:36:23;;;;;;;2.03;1.83;;;23.60;97.20;;;;;;1734171;28;20192;-75
2022/08/06 07:37:17;;;;;;;5.07;2.10;;;23.70;97.20;;;;;;1733867;28;20196;-75
2022/08/06 07:38:12;;;;;;;2.67;2.00;;;23.60;97.20;;;;;;1733998;28;20446;-74
2022/08/06 07:39:07;;;;;;;3.38;2.30;;;23.60;97.20;;;;;;1734109;28;20265;-75
2022/08/06 07:40:02;;;;;;;2.55;2.13;;;23.60;97.20;;;;;;1734054;28;20287;-75
2022/08/06 07:40:56;;;;;;;2.65;2.25;;;23.70;97.20;;;;;;1734229;28;20223;-74
2022/08/06 07:41:50;;;;;;;3.08;2.58;;;23.70;97.20;;;;;;1734195;28;20258;-75
2022/08/06 07:42:44;;;;;;;2.40;2.08;;;23.70;97.20;;;;;;1734129;28;20203;-74
2022/08/06 07:43:43;;;;;;;2.58;2.28;;;23.70;97.20;;;;;;1734233;28;20199;-75
2022/08/06 07:44:36;;;;;;;3.35;2.10;;;23.70;97.20;;;;;;1734085;28;20604;-75
2022/08/06 07:45:32;;;;;;;3.67;2.10;;;23.80;97.20;;;;;;1734074;28;20611;-75
2022/08/06 07:46:40;;;;;;;9.80;2.53;;;23.80;97.20;;;;;;1733914;28;20446;-75
2022/08/06 07:47:36;;;;;;;2.60;2.10;;;23.80;97.20;;;;;;1731662;28;20200;-75
2022/08/06 07:48:32;;;;;;;2.50;2.30;;;23.80;97.20;;;;;;1734056;28;20192;-75
2022/08/06 07:49:27;;;;;;;2.55;2.15;;;23.90;97.20;;;;;;1734095;28;20336;-75
2022/08/06 07:50:22;;;;;;;3.17;2.22;;;23.90;97.20;;;;;;1734262;28;20198;-75
2022/08/06 07:51:15;;;;;;;3.10;2.53;;;23.90;97.20;;;;;;1734052;28;20207;-75
2022/08/06 07:52:08;;;;;;;2.33;2.15;;;23.90;97.20;;;;;;1733915;28;20634;-75
2022/08/06 07:52:59;;;;;;;2.60;2.13;;;24.00;97.20;;;;;;1730711;28;20196;-75
2022/08/06 07:53:51;;;;;;;3.70;1.80;;;24.00;97.20;;;;;;1733945;28;20531;-75
2022/08/06 07:54:43;;;;;;;3.95;2.40;;;24.00;97.20;;;;;;1734082;28;20462;-75
2022/08/06 07:55:35;;;;;;;4.82;2.33;;;24.00;97.20;;;;;;1734070;28;20270;-75
2022/08/06 07:56:27;;;;;;;4.37;2.53;;;24.00;97.20;;;;;;1733913;28;20211;-75
2022/08/06 07:57:19;;;;;;;3.40;2.15;;;24.00;97.20;;;;;;1733595;28;20456;-75
2022/08/06 07:58:11;;;;;;;2.45;2.00;;;24.00;97.20;;;;;;1733844;28;20222;-75
2022/08/06 07:59:04;;;;;;;2.77;2.20;;;24.00;97.20;;;;;;1734174;28;20207;-75
2022/08/06 07:59:55;;;;;;;2.40;2.20;;;24.00;97.20;;;;;;1734017;28;20458;-75
2022/08/06 08:00:48;;;;;;;2.97;2.28;;;24.00;97.20;;;;;;1733973;28;20729;-75
2022/08/06 08:01:39;;;;;;;3.77;2.27;;;24.00;97.20;;;;;;1733891;28;20215;-77
2022/08/06 08:02:31;;;;;;;3.20;2.45;;;24.00;97.20;;;;;;1733869;28;20996;-75
2022/08/06 08:07:00;;;;;;;2.70;2.50;;;24.00;97.20;;;;;;1733537;28;20522;-75
2022/08/06 08:07:51;;;;;;;2.92;2.60;;;24.00;97.20;;;;;;1733973;28;20196;-75
2022/08/06 08:08:43;;;;;;;3.73;2.20;;;24.00;97.20;;;;;;1734019;28;20712;-76
2022/08/06 08:09:36;;;;;;;2.42;2.22;;;24.00;97.20;;;;;;1733638;28;20449;-76
2022/08/06 08:10:27;;;;;;;2.35;2.15;;;24.10;97.20;;;;;;1733782;28;20246;-77
2022/08/06 08:11:19;;;;;;;3.45;1.80;;;24.10;97.20;;;;;;1734220;28;20200;-75
2022/08/06 08:12:13;;;;;;;2.72;2.10;;;24.10;97.20;;;;;;1727271;28;20243;-75
2022/08/06 08:13:04;;;;;;;4.43;2.20;;;24.10;97.20;;;;;;1733557;28;20207;-74
2022/08/06 08:13:58;;;;;;;2.15;1.95;;;24.10;97.20;;;;;;1733948;28;20629;-75
2022/08/06 08:14:50;;;;;;;3.10;2.38;;;24.20;97.20;;;;;;1733906;28;20526;-77
2022/08/06 08:15:42;;;;;;;2.42;2.13;;;24.20;97.20;;;;;;1733901;28;20196;-75
2022/08/06 08:16:34;;;;;;;2.83;2.30;;;24.20;97.20;;;;;;1733738;28;20606;-76
2022/08/06 08:17:26;;;;;;;3.40;2.60;;;24.20;97.20;;;;;;1733998;28;20206;-75
2022/08/06 08:18:17;;;;;;;3.22;2.20;;;24.20;97.20;;;;;;1734162;28;20449;-75
2022/08/06 08:19:27;;;;;;;2.80;2.60;;;24.20;97.20;;;;;;1733641;28;20222;-74
2022/08/06 08:20:18;;;;;;;4.32;2.60;;;24.30;97.20;;;;;;1734157;28;20211;-75
2022/08/06 08:21:13;;;;;;;3.30;2.30;;;24.30;97.20;;;;;;1733822;28;20202;-75
2022/08/06 08:22:05;;;;;;;2.55;2.35;;;24.30;97.20;;;;;;1733835;28;20220;-75
2022/08/06 08:22:58;;;;;;;4.50;2.40;;;24.30;97.20;;;;;;1733882;28;20200;-74
2022/08/06 08:23:50;;;;;;;3.05;2.53;;;24.30;97.20;;;;;;1733862;28;20203;-75
2022/08/06 08:24:43;;;;;;;2.50;2.30;;;24.30;97.20;;;;;;1733958;28;20291;-75
2022/08/06 08:25:34;;;;;;;2.50;2.30;;;24.40;97.20;;;;;;1733945;28;20218;-75
2022/08/06 08:26:26;;;;;;;3.50;3.00;;;24.40;97.20;;;;;;1734105;28;20537;-76
2022/08/06 08:27:16;;;;;;;2.43;2.23;;;24.40;97.20;;;;;;1733165;28;20442;-74
2022/08/06 08:28:09;;;;;;;3.30;2.30;;;24.40;97.20;;;;;;1733710;28;20521;-75
2022/08/06 08:29:01;;;;;;;3.15;2.22;;;24.40;97.20;;;;;;1733807;28;20215;-75
2022/08/06 08:29:53;;;;;;;3.10;2.50;;;24.40;97.20;;;;;;1733779;28;20630;-74
2022/08/06 08:30:45;;;;;;;3.72;2.95;;;24.40;97.20;;;;;;1733831;28;20207;-75
2022/08/06 08:31:37;;;;;;;4.70;2.70;;;24.30;97.20;;;;;;1733714;28;20199;-75
2022/08/06 08:32:27;;;;;;;4.70;2.55;;;24.30;97.20;;;;;;1733748;28;20196;-75
2022/08/06 08:33:20;;;;;;;3.50;2.20;;;24.30;97.20;;;;;;1733859;28;20283;-75
2022/08/06 08:34:11;;;;;;;3.22;2.40;;;24.30;97.20;;;;;;1733755;28;20196;-75
2022/08/06 08:35:03;;;;;;;3.45;2.28;;;24.30;97.20;;;;;;1733834;28;20200;-74
2022/08/06 08:35:54;;;;;;;2.60;2.10;;;24.30;97.20;;;;;;1733742;28;20199;-75
2022/08/06 08:36:47;;;;;;;5.30;3.10;;;24.30;97.20;;;;;;1733613;28;20219;-75
2022/08/06 08:37:38;;;;;;;2.80;2.40;;;24.30;97.20;;;;;;1733862;28;20885;-75
2022/08/06 08:38:31;;;;;;;2.73;2.50;;;24.30;97.20;;;;;;1734065;28;20740;-75
2022/08/06 08:39:21;;;;;;;4.13;2.50;;;24.30;97.20;;;;;;1735618;28;20338;-75
2022/08/06 08:40:13;;;;;;;2.67;2.37;;;24.40;97.20;;;;;;1735966;28;20450;-75
2022/08/06 08:41:09;;;;;;;2.63;2.40;;;24.40;97.20;;;;;;1735391;28;20203;-75
2022/08/06 08:42:06;;;;;;;4.03;2.40;;;24.40;97.20;;;;;;1735103;28;20231;-75
2022/08/06 08:43:01;;;;;;;2.23;1.90;;;24.40;97.20;;;;;;1735224;28;20208;-75
2022/08/06 08:44:02;;;;;;;2.80;2.35;;;24.40;97.20;;;;;;1735369;28;20481;-75
2022/08/06 08:44:56;;;;;;;3.38;2.50;;;24.40;97.20;;;;;;1735219;28;20212;-75
2022/08/06 08:45:50;;;;;;;2.55;2.10;;;24.50;97.20;;;;;;1735235;28;20196;-76
2022/08/06 08:46:43;;;;;;;3.60;2.60;;;24.50;97.20;;;;;;1735054;28;20214;-75
2022/08/06 08:47:38;;;;;;;2.50;2.30;;;24.50;97.20;;;;;;1735275;28;20525;-75
2022/08/06 08:48:30;;;;;;;2.95;1.92;;;24.50;97.20;;;;;;1735035;28;20455;-75
2022/08/06 08:49:28;;;;;;;4.43;2.40;;;24.60;97.20;;;;;;1735142;28;20192;-75
2022/08/06 08:50:21;;;;;;;3.33;1.60;;;24.60;97.20;;;;;;1735222;28;20447;-74
2022/08/06 08:51:14;;;;;;;2.20;2.10;;;24.70;97.20;;;;;;1735046;28;20522;-75
2022/08/06 08:52:09;;;;;;;2.60;2.40;;;24.70;97.20;;;;;;1735072;28;20992;-75
2022/08/06 08:53:06;;;;;;;3.27;2.30;;;24.70;97.20;;;;;;1735239;28;20450;-74
2022/08/06 08:54:00;;;;;;;2.97;2.67;;;24.80;97.20;;;;;;1735117;28;20453;-75
2022/08/06 08:54:54;;;;;;;3.23;2.57;;;24.80;97.20;;;;;;1735048;28;20504;-75
2022/08/06 08:55:46;;;;;;;3.70;3.00;;;24.90;97.20;;;;;;1735230;28;20461;-75
2022/08/06 08:56:39;;;;;;;2.83;2.63;;;24.90;97.20;;;;;;1734884;28;20446;-75
2022/08/06 08:57:30;;;;;;;3.63;2.13;;;24.90;97.20;;;;;;1735013;28;20195;-75
2022/08/06 08:58:22;;;;;;;2.87;2.67;;;24.90;97.20;;;;;;1734936;28;20196;-75
2022/08/06 08:59:14;;;;;;;4.72;3.08;;;24.90;97.20;;;;;;1735088;28;20446;-75
2022/08/06 09:00:08;;;;;;;3.60;2.50;;;24.90;97.20;;;;;;1734957;28;20219;-74
2022/08/06 09:00:59;;;;;;;3.80;3.05;;;24.90;97.20;;;;;;1735138;28;20235;-74
2022/08/06 09:01:52;;;;;;;2.87;2.27;;;24.90;97.20;;;;;;1734981;28;20222;-75
2022/08/06 09:02:44;;;;;;;3.93;3.30;;;24.90;97.20;;;;;;1735210;28;20442;-75
2022/08/06 09:03:38;;;;;;;3.07;2.87;;;24.90;97.20;;;;;;1734970;28;20957;-75
2022/08/06 09:04:31;;;;;;;2.87;2.67;;;24.90;97.20;;;;;;1735101;28;20457;-75
2022/08/06 09:05:23;;;;;;;4.30;3.15;;;24.90;97.20;;;;;;1735295;28;20553;-75
2022/08/06 09:06:14;;;;;;;4.22;3.92;;;24.90;97.20;;;;;;1735047;28;20196;-75
2022/08/06 09:07:09;;;;;;;2.63;2.33;;;24.90;97.20;;;;;;1734849;28;20200;-75
2022/08/06 09:08:02;;;;;;;4.05;2.80;;;24.90;97.20;;;;;;1734981;28;20813;-75
2022/08/06 09:08:54;;;;;;;3.90;2.97;;;24.90;97.20;;;;;;1735241;28;20282;-75
2022/08/06 09:09:45;;;;;;;3.30;2.50;;;24.90;97.20;;;;;;1728520;28;20586;-75
2022/08/06 09:10:38;;;;;;;3.63;2.55;;;24.90;97.20;;;;;;1734096;28;20250;-75
2022/08/06 09:11:29;;;;;;;3.47;2.03;;;24.80;97.20;;;;;;1735027;28;20712;-76
2022/08/06 09:12:20;;;;;;;2.80;2.50;;;24.80;97.20;;;;;;1734995;28;20211;-76
2022/08/06 09:13:12;;;;;;;2.55;2.00;;;24.80;97.20;;;;;;1734942;28;20500;-76
2022/08/06 09:14:04;;;;;;;4.03;2.07;;;24.80;97.20;;;;;;1734921;28;20730;-75
2022/08/06 09:14:56;;;;;;;2.40;1.85;;;24.70;97.20;;;;;;1735224;28;20534;-76
2022/08/06 09:15:47;;;;;;;2.75;2.20;;;24.70;97.20;;;;;;1728325;28;20204;-76
2022/08/06 09:16:39;;;;;;;2.20;1.93;;;24.70;97.20;;;;;;1733636;28;20275;-75
2022/08/06 09:17:30;;;;;;;3.13;2.10;;;24.70;97.20;;;;;;1734810;28;20207;-75
2022/08/06 09:18:23;;;;;;;2.03;1.93;;;24.70;97.20;;;;;;1734873;28;20445;-75
2022/08/06 09:19:14;;;;;;;2.03;1.90;;;24.70;97.20;;;;;;1734933;28;20819;-75
2022/08/06 09:20:06;;;;;;;5.10;2.20;;;24.70;97.20;;;;;;1734862;28;21103;-75
2022/08/06 09:20:59;;;;;;;2.63;2.30;;;24.70;97.20;;;;;;1734878;28;20196;-75
2022/08/06 09:21:52;;;;;;;4.50;2.20;;;24.80;97.20;;;;;;1728216;28;20631;-75
2022/08/06 09:22:49;;;;;;;2.92;2.38;;;24.80;97.20;;;;;;1734567;28;20446;-75
2022/08/06 09:23:41;;;;;;;2.87;2.30;;;24.80;97.20;;;;;;1735004;28;20200;-74
2022/08/06 09:24:32;;;;;;;4.10;2.80;;;24.80;97.20;;;;;;1734933;28;20449;-77
2022/08/06 09:25:39;;;;;;;3.50;2.40;;;24.80;97.20;;;;;;1734995;28;20496;-75
2022/08/06 09:26:33;;;;;;;4.50;2.60;;;24.80;97.20;;;;;;1734849;28;20443;-75
2022/08/06 09:27:34;;;;;;;3.50;3.20;;;24.80;97.20;;;;;;1734984;28;20771;-75
2022/08/06 09:28:31;;;;;;;2.70;2.37;;;24.80;97.20;;;;;;1734789;28;20335;-75
2022/08/06 09:29:23;;;;;;;3.23;2.90;;;24.80;97.20;;;;;;1734804;28;20807;-77
2022/08/06 09:30:16;;;;;;;3.33;2.90;;;24.80;97.20;;;;;;1734897;28;20445;-76
2022/08/06 09:31:10;;;;;;;3.20;2.90;;;24.80;97.20;;;;;;1734349;28;20446;-76
2022/08/06 09:32:04;;;;;;;4.40;2.97;;;24.80;97.20;;;;;;1735016;28;20843;-76
2022/08/06 09:32:56;;;;;;;3.50;3.20;;;24.90;97.20;;;;;;1728307;28;20502;-76
2022/08/06 09:33:56;;;;;;;4.07;3.63;;;24.90;97.20;;;;;;1734140;28;20788;-76
2022/08/06 09:34:48;;;;;;;3.43;2.53;;;24.90;97.20;;;;;;1734806;28;20508;-76
2022/08/06 09:35:39;;;;;;;6.15;2.45;;;24.90;97.20;;;;;;1734934;28;20844;-76
2022/08/06 09:36:42;;;;;;;3.30;2.33;;;25.00;97.20;;;;;;1734850;28;20188;-76
2022/08/06 09:37:34;;;;;;;4.67;2.60;;;25.00;97.20;;;;;;1734902;28;20196;-76
2022/08/06 09:38:28;;;;;;;2.90;2.13;;;25.00;97.20;;;;;;1734587;28;20525;-76
2022/08/06 09:39:30;;;;;;;2.67;2.30;;;25.00;97.20;;;;;;1734877;28;20933;-76
2022/08/06 09:40:22;;;;;;;3.93;3.63;;;25.00;97.20;;;;;;1734764;28;20224;-76
2022/08/06 09:41:14;;;;;;;2.80;2.60;;;25.00;97.20;;;;;;1734873;28;20507;-76
2022/08/06 09:42:08;;;;;;;3.78;3.05;;;25.00;97.20;;;;;;1731499;28;20240;-78
2022/08/06 09:42:59;;;;;;;2.75;2.55;;;25.00;97.20;;;;;;1733896;28;20204;-76
2022/08/06 09:43:53;;;;;;;2.50;2.30;;;25.00;97.20;;;;;;1734748;28;20207;-76
2022/08/06 09:45:07;;;;;;;5.65;3.20;;;25.00;97.20;;;;;;1734621;28;20482;-76
2022/08/06 09:45:59;;;;;;;2.80;2.50;;;25.00;97.20;;;;;;1734679;28;20636;-76
2022/08/06 09:46:50;;;;;;;2.13;2.00;;;25.10;97.20;;;;;;1734495;28;20552;-76
2022/08/06 09:47:42;;;;;;;4.97;2.47;;;25.10;97.20;;;;;;1734799;28;20443;-76